createdAt,value
2023-02-18T00:00:40.216Z,11.05
2023-02-18T00:03:07.944Z,10.94
2023-02-18T00:05:35.653Z,11.02
2023-02-18T00:08:04.898Z,11.00
2023-02-18T00:10:32.611Z,10.98
2023-02-18T00:13:01.515Z,10.92
2023-02-18T00:15:29.317Z,10.90
2023-02-18T00:17:57.065Z,10.97
2023-02-18T00:20:30.401Z,11.04
2023-02-18T00:22:58.129Z,11.07
2023-02-18T00:25:27.337Z,10.96
2023-02-18T00:27:55.083Z,10.94
2023-02-18T00:30:22.831Z,10.87
2023-02-18T00:32:50.665Z,10.74
2023-02-18T00:35:18.579Z,10.86
2023-02-18T00:37:46.295Z,10.81
2023-02-18T00:40:14.494Z,10.75
2023-02-18T00:42:45.528Z,10.69
2023-02-18T00:45:13.242Z,10.62
2023-02-18T00:47:41.030Z,10.58
2023-02-18T00:50:09.893Z,10.52
2023-02-18T00:52:37.647Z,10.45
2023-02-18T00:55:08.796Z,10.51
2023-02-18T00:57:36.564Z,10.67
2023-02-18T01:00:09.537Z,10.68
2023-02-18T01:02:37.286Z,10.74
2023-02-18T01:05:05.305Z,10.78
2023-02-18T01:07:35.352Z,10.86
2023-02-18T01:10:03.174Z,10.90
2023-02-18T01:12:30.910Z,10.87
2023-02-18T01:14:58.618Z,10.89
2023-02-18T01:17:27.736Z,10.82
2023-02-18T01:19:56.793Z,10.82
2023-02-18T01:22:27.368Z,10.87
2023-02-18T01:24:55.111Z,10.81
2023-02-18T01:27:22.841Z,10.77
2023-02-18T01:29:50.579Z,10.76
2023-02-18T01:32:18.422Z,10.73
2023-02-18T01:34:47.680Z,10.73
2023-02-18T01:37:18.897Z,10.68
2023-02-18T01:39:46.730Z,10.66
2023-02-18T01:42:20.486Z,10.70
2023-02-18T01:44:49.558Z,10.60
2023-02-18T01:47:18.880Z,10.60
2023-02-18T01:49:53.127Z,10.57
2023-02-18T01:52:27.941Z,10.63
2023-02-18T01:54:58.258Z,10.71
2023-02-18T01:57:30.895Z,10.78
2023-02-18T02:00:07.663Z,10.82
2023-02-18T02:02:38.620Z,10.85
2023-02-18T02:05:08.905Z,10.82
2023-02-18T02:07:36.789Z,10.80
2023-02-18T02:10:05.657Z,10.78
2023-02-18T02:12:48.754Z,10.80
2023-02-18T02:15:29.731Z,10.83
2023-02-18T02:18:13.323Z,10.88
2023-02-18T02:21:25.584Z,10.82
2023-02-18T02:24:28.457Z,10.90
2023-02-18T02:27:17.388Z,10.95
2023-02-18T02:30:28.152Z,10.96
2023-02-18T02:33:40.119Z,10.95
2023-02-18T02:36:15.156Z,11.01
2023-02-18T02:38:55.186Z,11.03
2023-02-18T02:41:34.985Z,11.00
2023-02-18T02:44:13.108Z,11.02
2023-02-18T02:46:46.009Z,11.00
2023-02-18T02:49:25.753Z,11.04
2023-02-18T02:52:01.712Z,11.06
2023-02-18T02:54:32.195Z,11.07
2023-02-18T02:57:10.246Z,11.09
2023-02-18T02:59:44.494Z,11.11
2023-02-18T03:02:33.474Z,11.08
2023-02-18T03:05:15.732Z,11.08
2023-02-18T03:08:09.576Z,11.05
2023-02-18T03:10:53.313Z,11.09
2023-02-18T03:13:32.288Z,11.06
2023-02-18T03:16:12.948Z,11.02
2023-02-18T03:18:44.833Z,10.99
2023-02-18T03:21:16.184Z,11.03
2023-02-18T03:23:55.321Z,11.03
2023-02-18T03:26:27.242Z,11.04
2023-02-18T03:28:59.237Z,11.04
2023-02-18T03:31:30.178Z,11.00
2023-02-18T03:34:02.660Z,11.03
2023-02-18T03:36:35.109Z,11.02
2023-02-18T03:39:06.346Z,11.02
2023-02-18T03:41:34.828Z,11.03
2023-02-18T03:44:05.726Z,11.03
2023-02-18T03:46:40.075Z,11.01
2023-02-18T03:49:08.211Z,11.01
2023-02-18T03:51:36.417Z,10.99
2023-02-18T03:54:05.748Z,10.96
2023-02-18T03:56:35.559Z,10.94
2023-02-18T03:59:03.682Z,10.95
2023-02-18T04:01:31.971Z,11.00
2023-02-18T04:04:03.031Z,11.00
2023-02-18T04:06:30.845Z,10.96
2023-02-18T04:08:58.825Z,10.92
2023-02-18T04:11:27.982Z,10.88
2023-02-18T04:13:55.711Z,10.91
2023-02-18T04:16:23.536Z,10.90
2023-02-18T04:18:51.235Z,10.89
2023-02-18T04:21:18.985Z,10.82
2023-02-18T04:23:46.773Z,10.78
2023-02-18T04:26:17.463Z,10.75
2023-02-18T04:28:46.559Z,10.75
2023-02-18T04:31:15.316Z,10.74
2023-02-18T04:33:43.217Z,10.77
2023-02-18T04:36:11.286Z,10.77
2023-02-18T04:38:39.109Z,10.74
2023-02-18T04:41:06.827Z,10.74
2023-02-18T04:43:36.538Z,10.72
2023-02-18T04:46:07.087Z,10.72
2023-02-18T04:48:35.063Z,10.69
2023-02-18T04:51:03.139Z,10.70
2023-02-18T04:53:30.837Z,10.67
2023-02-18T04:55:59.377Z,10.68
2023-02-18T04:58:30.078Z,10.71
2023-02-18T05:01:00.783Z,10.66
2023-02-18T05:03:32.013Z,10.63
2023-02-18T05:06:00.185Z,10.65
2023-02-18T05:08:27.917Z,10.69
2023-02-18T05:10:56.182Z,10.65
2023-02-18T05:13:29.025Z,10.58
2023-02-18T05:15:56.713Z,10.63
2023-02-18T05:18:24.525Z,10.64
2023-02-18T05:20:53.627Z,10.63
2023-02-18T05:23:21.446Z,10.64
2023-02-18T05:25:49.276Z,10.69
2023-02-18T05:28:19.530Z,10.71
2023-02-18T05:30:47.280Z,10.72
2023-02-18T05:33:15.196Z,10.73
2023-02-18T05:35:42.935Z,10.73
2023-02-18T05:38:12.050Z,10.71
2023-02-18T05:40:40.147Z,10.76
2023-02-18T05:43:07.964Z,10.82
2023-02-18T05:45:35.850Z,10.84
2023-02-18T05:48:03.877Z,10.84
2023-02-18T05:50:31.569Z,10.82
2023-02-18T05:52:59.354Z,10.83
2023-02-18T05:55:28.495Z,10.78
2023-02-18T05:57:56.321Z,10.80
2023-02-18T06:00:25.503Z,10.75
2023-02-18T06:02:53.298Z,10.78
2023-02-18T06:05:21.051Z,10.84
2023-02-18T06:07:51.714Z,10.79
2023-02-18T06:10:19.763Z,10.76
2023-02-18T06:12:48.838Z,10.75
2023-02-18T06:15:16.641Z,10.76
2023-02-18T06:17:44.383Z,10.76
2023-02-18T06:20:13.238Z,10.80
2023-02-18T06:22:40.942Z,10.80
2023-02-18T06:25:08.985Z,10.80
2023-02-18T06:27:36.701Z,10.84
2023-02-18T06:30:07.128Z,10.82
2023-02-18T06:32:34.930Z,10.85
2023-02-18T06:35:02.803Z,10.79
2023-02-18T06:37:30.544Z,10.79
2023-02-18T06:39:58.493Z,10.86
2023-02-18T06:42:26.306Z,10.82
2023-02-18T06:44:54.082Z,10.82
2023-02-18T06:47:23.143Z,10.86
2023-02-18T06:49:51.033Z,10.87
2023-02-18T06:52:18.738Z,10.88
2023-02-18T06:54:46.832Z,10.92
2023-02-18T06:57:15.866Z,10.95
2023-02-18T06:59:43.784Z,10.91
2023-02-18T07:02:12.344Z,11.01
2023-02-18T07:04:41.527Z,11.02
2023-02-18T07:07:09.326Z,11.04
2023-02-18T07:09:37.085Z,11.08
2023-02-18T07:12:05.374Z,11.10
2023-02-18T07:14:35.649Z,11.10
2023-02-18T07:17:03.401Z,11.14
2023-02-18T07:19:31.135Z,11.15
2023-02-18T07:22:01.466Z,11.16
2023-02-18T07:24:29.216Z,11.15
2023-02-18T07:26:56.980Z,11.05
2023-02-18T07:29:24.801Z,11.09
2023-02-18T07:31:55.311Z,11.13
2023-02-18T07:34:23.180Z,11.09
2023-02-18T07:36:50.957Z,11.11
2023-02-18T07:39:20.831Z,11.07
2023-02-18T07:41:48.762Z,11.04
2023-02-18T07:44:16.539Z,11.02
2023-02-18T07:46:45.599Z,11.05
2023-02-18T07:49:14.988Z,11.08
2023-02-18T07:51:42.723Z,11.12
2023-02-18T07:54:10.460Z,11.14
2023-02-18T07:56:39.905Z,11.16
2023-02-18T07:59:09.904Z,11.15
2023-02-18T08:01:37.657Z,11.25
2023-02-18T08:04:05.884Z,11.23
2023-02-18T08:06:36.560Z,11.24
2023-02-18T08:09:04.574Z,11.30
2023-02-18T08:11:32.710Z,11.23
2023-02-18T08:14:04.166Z,11.32
2023-02-18T08:16:32.089Z,11.34
2023-02-18T08:18:59.875Z,11.40
2023-02-18T08:21:27.816Z,11.44
2023-02-18T08:23:56.085Z,11.62
2023-02-18T08:26:23.886Z,11.72
2023-02-18T08:28:54.139Z,11.84
2023-02-18T08:31:25.177Z,11.87
2023-02-18T08:33:53.687Z,11.86
2023-02-18T08:36:21.650Z,11.92
2023-02-18T08:38:49.644Z,11.90
2023-02-18T08:41:20.255Z,12.02
2023-02-18T08:43:48.748Z,11.95
2023-02-18T08:46:24.981Z,11.93
2023-02-18T08:48:58.461Z,11.98
2023-02-18T08:51:28.400Z,12.01
2023-02-18T08:53:59.413Z,11.98
2023-02-18T08:56:27.762Z,11.84
2023-02-18T08:58:59.591Z,11.95
2023-02-18T09:01:27.421Z,12.01
2023-02-18T09:03:55.269Z,12.09
2023-02-18T09:06:24.576Z,12.12
2023-02-18T09:08:52.381Z,12.01
2023-02-18T09:11:20.920Z,12.15
2023-02-18T09:13:48.856Z,12.23
2023-02-18T09:16:19.072Z,12.28
2023-02-18T09:18:47.586Z,12.27
2023-02-18T09:21:18.978Z,12.04
2023-02-18T09:23:51.546Z,12.14
2023-02-18T09:26:23.096Z,12.10
2023-02-18T09:28:51.840Z,12.14
2023-02-18T09:31:21.650Z,11.99
2023-02-18T09:33:52.349Z,11.96
2023-02-18T09:36:20.496Z,12.05
2023-02-18T09:38:50.355Z,12.33
2023-02-18T09:41:31.519Z,12.35
2023-02-18T09:44:02.376Z,12.37
2023-02-18T09:46:33.637Z,12.46
2023-02-18T09:49:06.113Z,12.53
2023-02-18T09:51:34.013Z,12.72
2023-02-18T09:54:03.173Z,12.93
2023-02-18T09:56:34.780Z,12.94
2023-02-18T09:59:08.283Z,13.22
2023-02-18T10:01:38.853Z,13.42
2023-02-18T10:04:14.471Z,13.52
2023-02-18T10:06:42.041Z,13.50
2023-02-18T10:09:20.580Z,13.99
2023-02-18T10:11:52.533Z,13.89
2023-02-18T10:14:20.752Z,13.83
2023-02-18T10:16:51.987Z,13.82
2023-02-18T10:19:26.984Z,13.84
2023-02-18T10:21:56.210Z,13.78
2023-02-18T10:24:32.075Z,13.98
2023-02-18T10:27:00.948Z,14.47
2023-02-18T10:29:30.255Z,14.86
2023-02-18T10:32:00.695Z,14.92
2023-02-18T10:34:42.188Z,14.88
2023-02-18T10:37:34.623Z,14.75
2023-02-18T10:40:14.795Z,15.06
2023-02-18T10:42:52.788Z,14.83
2023-02-18T10:45:31.433Z,14.95
2023-02-18T10:48:11.028Z,15.06
2023-02-18T10:50:41.377Z,14.78
2023-02-18T10:53:15.335Z,15.00
2023-02-18T10:55:46.888Z,14.74
2023-02-18T10:58:28.179Z,14.74
2023-02-18T11:00:56.166Z,15.03
2023-02-18T11:03:25.914Z,14.84
2023-02-18T11:05:57.165Z,14.91
2023-02-18T11:08:28.016Z,15.08
2023-02-18T11:10:57.670Z,14.96
2023-02-18T11:13:28.230Z,15.25
2023-02-18T11:15:59.474Z,15.69
2023-02-18T11:18:37.164Z,15.51
2023-02-18T11:21:07.408Z,15.69
2023-02-18T11:23:47.469Z,16.08
2023-02-18T11:26:18.536Z,15.99
2023-02-18T11:28:48.158Z,15.64
2023-02-18T11:31:24.579Z,15.82
2023-02-18T11:33:55.748Z,16.13
2023-02-18T11:36:26.444Z,16.18
2023-02-18T11:38:57.953Z,16.49
2023-02-18T11:41:35.334Z,16.70
2023-02-18T11:44:05.317Z,16.65
2023-02-18T11:46:33.191Z,16.97
2023-02-18T11:49:22.206Z,16.46
2023-02-18T11:51:51.304Z,16.26
2023-02-18T11:54:26.649Z,16.41
2023-02-18T11:57:03.032Z,16.15
2023-02-18T11:59:34.255Z,16.22
2023-02-18T12:02:23.923Z,16.23
2023-02-18T12:04:55.177Z,16.32
2023-02-18T12:07:28.674Z,16.13
2023-02-18T12:09:59.889Z,16.06
2023-02-18T12:12:32.151Z,15.58
2023-02-18T12:15:01.271Z,15.69
2023-02-18T12:17:53.505Z,15.80
2023-02-18T12:20:38.200Z,15.84
2023-02-18T12:23:14.533Z,15.87
2023-02-18T12:25:50.406Z,16.00
2023-02-18T12:28:32.754Z,16.06
2023-02-18T12:31:17.021Z,15.87
2023-02-18T12:33:57.005Z,16.09
2023-02-18T12:36:39.414Z,16.40
2023-02-18T12:39:15.795Z,16.07
2023-02-18T12:41:56.795Z,15.90
2023-02-18T12:44:35.967Z,16.22
2023-02-18T12:47:18.640Z,16.32
2023-02-18T12:50:15.318Z,16.18
2023-02-18T12:52:52.008Z,15.94
2023-02-18T12:55:33.964Z,15.85
2023-02-18T12:58:10.154Z,15.90
2023-02-18T13:01:02.831Z,16.08
2023-02-18T13:04:00.996Z,16.55
2023-02-18T13:06:47.513Z,16.42
2023-02-18T13:09:26.257Z,16.10
2023-02-18T13:12:04.459Z,15.94
2023-02-18T13:14:35.965Z,15.79
2023-02-18T13:17:09.986Z,15.88
2023-02-18T13:19:50.534Z,15.80
2023-02-18T13:22:21.540Z,15.86
2023-02-18T13:24:52.151Z,15.93
2023-02-18T13:27:26.253Z,15.82
2023-02-18T13:30:17.591Z,15.99
2023-02-18T13:32:58.874Z,16.05
2023-02-18T13:35:33.969Z,16.20
2023-02-18T13:38:20.380Z,15.94
2023-02-18T13:40:50.995Z,15.71
2023-02-18T13:43:21.233Z,15.61
2023-02-18T13:46:05.601Z,15.44
2023-02-18T13:48:40.433Z,15.38
2023-02-18T13:51:08.495Z,15.17
2023-02-18T13:53:42.755Z,14.82
2023-02-18T13:56:21.229Z,14.77
2023-02-18T13:58:52.831Z,14.75
2023-02-18T14:01:34.623Z,14.58
2023-02-18T14:04:04.082Z,14.49
2023-02-18T14:06:34.424Z,14.56
2023-02-18T14:09:37.266Z,14.49
2023-02-18T14:12:26.360Z,14.49
2023-02-18T14:14:54.179Z,14.51
2023-02-18T14:17:34.322Z,14.41
2023-02-18T14:20:38.802Z,14.40
2023-02-18T14:23:40.614Z,14.32
2023-02-18T14:26:11.048Z,14.13
2023-02-18T14:28:45.885Z,14.07
2023-02-18T14:31:30.934Z,14.01
2023-02-18T14:34:47.816Z,13.94
2023-02-18T14:37:43.520Z,13.74
2023-02-18T14:40:26.430Z,13.89
2023-02-18T14:43:05.981Z,13.74
2023-02-18T14:45:54.388Z,13.90
2023-02-18T14:48:41.403Z,14.00
2023-02-18T14:51:10.327Z,13.76
2023-02-18T14:53:43.421Z,13.68
2023-02-18T14:56:15.985Z,13.59
2023-02-18T14:58:48.393Z,13.50
2023-02-18T15:01:22.911Z,13.57
2023-02-18T15:03:52.051Z,13.59
2023-02-18T15:06:33.207Z,13.70
2023-02-18T15:09:01.266Z,13.56
2023-02-18T15:11:38.097Z,13.55
2023-02-18T15:14:11.825Z,13.58
2023-02-18T15:16:40.402Z,13.59
2023-02-18T15:19:14.694Z,13.55
2023-02-18T15:21:44.853Z,13.50
2023-02-18T15:24:25.793Z,13.51
2023-02-18T15:27:00.262Z,13.43
2023-02-18T15:29:29.597Z,13.41
2023-02-18T15:31:59.112Z,13.42
2023-02-18T15:34:34.181Z,13.36
2023-02-18T15:37:04.044Z,13.33
2023-02-18T15:39:35.395Z,13.29
2023-02-18T15:42:09.577Z,13.23
2023-02-18T15:44:38.515Z,13.19
2023-02-18T15:47:09.100Z,13.14
2023-02-18T15:49:39.494Z,13.05
2023-02-18T15:52:09.781Z,13.03
2023-02-18T15:54:42.068Z,12.96
2023-02-18T15:57:17.327Z,12.89
2023-02-18T15:59:47.719Z,12.84
2023-02-18T16:02:21.787Z,12.84
2023-02-18T16:04:53.325Z,12.79
2023-02-18T16:07:24.739Z,12.74
2023-02-18T16:09:58.657Z,12.70
2023-02-18T16:12:32.659Z,12.71
2023-02-18T16:15:04.486Z,12.66
2023-02-18T16:17:33.062Z,12.62
2023-02-18T16:20:05.822Z,12.57
2023-02-18T16:22:36.382Z,12.58
2023-02-18T16:25:15.039Z,12.54
2023-02-18T16:27:51.361Z,12.52
2023-02-18T16:30:21.723Z,12.44
2023-02-18T16:32:49.536Z,12.44
2023-02-18T16:35:18.002Z,12.41
2023-02-18T16:37:47.944Z,12.36
2023-02-18T16:40:25.391Z,12.33
2023-02-18T16:42:55.151Z,12.31
2023-02-18T16:45:30.074Z,12.32
2023-02-18T16:47:58.852Z,12.28
2023-02-18T16:50:29.569Z,12.27
2023-02-18T16:52:57.774Z,12.25
2023-02-18T16:55:27.192Z,12.23
2023-02-18T16:57:56.719Z,12.23
2023-02-18T17:00:25.306Z,12.24
2023-02-18T17:02:55.536Z,12.23
2023-02-18T17:05:26.935Z,12.25
2023-02-18T17:07:57.860Z,12.20
2023-02-18T17:10:25.650Z,12.17
2023-02-18T17:12:53.361Z,12.12
2023-02-18T17:15:34.493Z,12.12
2023-02-18T17:18:04.571Z,12.10
2023-02-18T17:20:34.263Z,12.05
2023-02-18T17:23:02.038Z,12.06
2023-02-18T17:25:34.640Z,12.05
2023-02-18T17:28:02.703Z,12.01
2023-02-18T17:30:33.131Z,11.97
2023-02-18T17:33:03.198Z,11.95
2023-02-18T17:35:32.136Z,11.95
2023-02-18T17:38:00.208Z,11.95
2023-02-18T17:40:29.505Z,11.89
2023-02-18T17:42:57.571Z,11.93
2023-02-18T17:45:29.865Z,11.90
2023-02-18T17:47:59.885Z,11.89
2023-02-18T17:50:29.399Z,11.88
2023-02-18T17:52:57.169Z,11.87
2023-02-18T17:55:26.749Z,11.87
2023-02-18T17:57:57.295Z,11.90
2023-02-18T18:00:30.450Z,11.96
2023-02-18T18:02:59.875Z,11.95
2023-02-18T18:05:30.002Z,11.91
2023-02-18T18:07:57.719Z,11.90
2023-02-18T18:10:33.452Z,11.89
2023-02-18T18:13:02.718Z,11.88
2023-02-18T18:15:35.378Z,11.83
2023-02-18T18:18:04.735Z,11.79
2023-02-18T18:20:34.631Z,11.76
2023-02-18T18:23:05.185Z,11.73
2023-02-18T18:25:38.734Z,11.73
2023-02-18T18:28:08.165Z,11.74
2023-02-18T18:30:38.871Z,11.77
2023-02-18T18:33:19.324Z,11.76
2023-02-18T18:35:49.952Z,11.80
2023-02-18T18:38:18.384Z,11.76
2023-02-18T18:40:47.222Z,11.77
2023-02-18T18:43:18.660Z,11.82
2023-02-18T18:45:46.485Z,11.82
2023-02-18T18:48:16.040Z,11.90
2023-02-18T18:50:44.396Z,11.90
2023-02-18T18:53:18.863Z,11.88
2023-02-18T18:55:46.960Z,11.82
2023-02-18T18:58:17.090Z,11.82
2023-02-18T19:00:45.952Z,11.88
2023-02-18T19:03:18.116Z,11.87
2023-02-18T19:05:47.290Z,11.84
2023-02-18T19:08:16.763Z,11.79
2023-02-18T19:10:46.235Z,11.83
2023-02-18T19:13:15.775Z,11.74
2023-02-18T19:15:43.939Z,11.72
2023-02-18T19:18:15.886Z,11.70
2023-02-18T19:20:44.675Z,11.72
2023-02-18T19:23:12.668Z,11.76
2023-02-18T19:25:41.669Z,11.80
2023-02-18T19:28:13.673Z,11.81
2023-02-18T19:30:42.315Z,11.77
2023-02-18T19:33:13.854Z,11.78
2023-02-18T19:35:44.327Z,11.71
2023-02-18T19:38:13.895Z,11.64
2023-02-18T19:40:42.622Z,11.64
2023-02-18T19:43:12.051Z,11.64
2023-02-18T19:45:43.165Z,11.64
2023-02-18T19:48:11.738Z,11.62
2023-02-18T19:50:42.687Z,11.57
2023-02-18T19:53:11.619Z,11.57
2023-02-18T19:55:39.500Z,11.49
2023-02-18T19:58:07.289Z,11.49
2023-02-18T20:00:35.390Z,11.48
2023-02-18T20:03:03.166Z,11.54
2023-02-18T20:05:30.940Z,11.55
2023-02-18T20:08:00.388Z,11.55
2023-02-18T20:10:29.238Z,11.56
2023-02-18T20:12:56.946Z,11.53
2023-02-18T20:15:24.713Z,11.51
2023-02-18T20:17:52.483Z,11.51
2023-02-18T20:20:21.591Z,11.50
2023-02-18T20:22:49.410Z,11.49
2023-02-18T20:25:18.746Z,11.47
2023-02-18T20:27:59.836Z,11.48
2023-02-18T20:30:28.846Z,11.39
2023-02-18T20:32:56.606Z,11.39
2023-02-18T20:35:24.531Z,11.38
2023-02-18T20:37:54.039Z,11.40
2023-02-18T20:40:23.240Z,11.38
2023-02-18T20:42:51.002Z,11.38
2023-02-18T20:45:19.501Z,11.26
2023-02-18T20:47:47.241Z,11.29
2023-02-18T20:50:15.903Z,11.26
2023-02-18T20:52:43.723Z,11.23
2023-02-18T20:55:11.507Z,11.22
2023-02-18T20:57:40.600Z,11.18
2023-02-18T21:00:09.480Z,11.17
2023-02-18T21:02:37.225Z,11.17
2023-02-18T21:05:05.308Z,11.11
2023-02-18T21:07:33.451Z,11.11
2023-02-18T21:10:01.266Z,11.08
2023-02-18T21:12:28.964Z,11.11
2023-02-18T21:14:58.079Z,11.13
2023-02-18T21:17:26.083Z,11.16
2023-02-18T21:19:53.799Z,11.15
2023-02-18T21:22:21.589Z,11.13
2023-02-18T21:24:51.208Z,11.15
2023-02-18T21:27:18.955Z,11.19
2023-02-18T21:29:46.737Z,11.12
2023-02-18T21:32:16.005Z,11.09
2023-02-18T21:34:43.814Z,11.09
2023-02-18T21:37:11.601Z,11.06
2023-02-18T21:39:39.503Z,11.03
2023-02-18T21:42:07.234Z,11.00
2023-02-18T21:44:42.212Z,10.94
2023-02-18T21:47:10.306Z,10.98
2023-02-18T21:49:39.544Z,10.96
2023-02-18T21:52:09.422Z,10.96
2023-02-18T21:54:39.300Z,10.95
2023-02-18T21:57:08.727Z,10.95
2023-02-18T21:59:37.455Z,11.03
2023-02-18T22:02:07.173Z,11.06
2023-02-18T22:04:37.139Z,11.00
2023-02-18T22:07:06.726Z,11.01
2023-02-18T22:09:34.432Z,10.99
2023-02-18T22:12:02.256Z,11.00
2023-02-18T22:14:30.180Z,10.99
2023-02-18T22:16:58.010Z,11.00
2023-02-18T22:19:25.984Z,11.01
2023-02-18T22:21:53.736Z,11.01
2023-02-18T22:24:22.861Z,10.99
2023-02-18T22:26:51.034Z,10.99
2023-02-18T22:29:20.775Z,10.98
2023-02-18T22:31:49.509Z,10.95
2023-02-18T22:34:18.013Z,10.94
2023-02-18T22:36:48.944Z,10.93
2023-02-18T22:39:17.193Z,10.95
2023-02-18T22:41:49.129Z,10.96
2023-02-18T22:44:20.305Z,10.98
2023-02-18T22:46:48.625Z,11.04
2023-02-18T22:49:16.876Z,10.99
2023-02-18T22:51:45.428Z,10.98
2023-02-18T22:54:14.818Z,11.00
2023-02-18T23:00:58.135Z,10.88
2023-02-18T23:03:27.402Z,10.96
2023-02-18T23:05:55.279Z,10.97
2023-02-18T23:08:23.324Z,10.90
2023-02-18T23:11:01.416Z,10.96
2023-02-18T23:13:31.554Z,10.96
2023-02-18T23:16:02.967Z,10.96
2023-02-18T23:18:32.401Z,10.96
2023-02-18T23:21:21.611Z,10.93
2023-02-18T23:23:52.679Z,10.89
2023-02-18T23:26:21.255Z,10.88
2023-02-18T23:28:50.617Z,10.83
2023-02-18T23:31:22.262Z,10.87
2023-02-18T23:33:53.524Z,10.85
2023-02-18T23:36:23.428Z,10.80
2023-02-18T23:38:52.335Z,10.80
2023-02-18T23:41:23.020Z,10.82
2023-02-18T23:43:51.104Z,10.78
2023-02-18T23:46:21.872Z,10.80
2023-02-18T23:48:50.228Z,10.84
2023-02-18T23:51:23.948Z,10.78
2023-02-18T23:53:51.922Z,10.76
2023-02-18T23:56:22.832Z,10.77
2023-02-18T23:58:53.148Z,10.76
